Terminal Aerodrome Forecast
Issued by NWS

Current Version | Previous Version | Text Only | Print | Product List | Glossary On
Versions: 1 2 3 4 5 6 7 8 9 10 11 12 13 14 15 16 17 18 19
000
FTUS41 KBTV 311300 AAA
TAFMSS
TAF AMD
KMSS 311358Z 3114/0112 18005KT 6SM -SHRA VCTS BKN070CB
      TEMPO 3114/3115 3SM -TSRA OVC020CB
     FM311600 22009KT P6SM VCSH BKN045
     FM312100 23005KT P6SM SCT050=

USA.gov is the U.S. government's official web portal to all federal, state and local government web resources and services.